Time;durP1;ratioP1;P1;durP2;ratioP2;P2;SDS_P1;SDS_P2;PMS_P1;PMS_P2;Temp;Humidity;BMP_temperature;BMP_pressure;BME280_temperature;BME280_humidity;BME280_pressure;Samples;Min_cycle;Max_cycle;Signal;HPM_P1;HPM_P2
2023/01/20 00:01:57;;;;;;;;;;;;;;;1.14;80.51;100483.75;4203538;28;20022;-63
2023/01/20 00:03:59;;;;;;;;;;;;;;;1.14;80.30;100489.91;4204062;28;20027;-63
2023/01/20 00:06:01;;;;;;;;;;;;;;;1.16;80.16;100481.81;4205977;28;20019;-63
2023/01/20 00:08:03;;;;;;;;;;;;;;;1.18;80.16;100488.72;4192334;28;20016;-63
2023/01/20 00:10:05;;;;;;;;;;;;;;;1.19;80.10;100495.75;4188047;28;20390;-62
2023/01/20 00:12:09;;;;;;;;;;;;;;;1.20;80.24;100491.25;4187775;28;20019;-63
2023/01/20 00:14:11;;;;;;;;;;;;;;;1.22;80.09;100494.63;4187726;28;20028;-63
2023/01/20 00:16:13;;;;;;;;;;;;;;;1.22;80.39;100494.63;4188194;28;20860;-63
2023/01/20 00:18:15;;;;;;;;;;;;;;;1.22;80.18;100498.16;4202276;28;20030;-61
2023/01/20 00:20:17;;;;;;;;;;;;;;;1.24;80.04;100498.03;4204924;28;20026;-63
2023/01/20 00:22:20;;;;;;;;;;;;;;;1.25;80.19;100497.91;4204328;28;19929;-62
2023/01/20 00:24:22;;;;;;;;;;;;;;;1.24;80.45;100495.38;4205050;28;20019;-62
2023/01/20 00:26:24;;;;;;;;;;;;;;;1.23;80.33;100497.16;4204662;28;20027;-62
2023/01/20 00:28:28;;;;;;;;;;;;;;;1.22;80.56;100503.47;4188731;28;20019;-62
2023/01/20 00:30:30;;;;;;;;;;;;;;;1.22;81.04;100500.81;4187784;28;20446;-61
2023/01/20 00:32:36;;;;;;;;;;;;;;;1.21;80.95;100509.75;4195851;28;20055;-63
2023/01/20 00:34:38;;;;;;;;;;;;;;;1.21;81.17;100507.09;4203886;28;20030;-62
2023/01/20 00:36:40;;;;;;;;;;;;;;;1.21;81.27;100511.56;4201002;28;19932;-63
2023/01/20 00:38:42;;;;;;;;;;;;;;;1.21;81.21;100511.56;4188012;28;20023;-63
2023/01/20 00:40:44;;;;;;;;;;;;;;;1.22;81.14;100518.56;4185321;28;20031;-62
2023/01/20 00:42:46;;;;;;;;;;;;;;;1.22;80.66;100516.78;4188494;28;20622;-63
2023/01/20 00:44:50;;;;;;;;;;;;;;;1.23;80.70;100512.28;4188416;28;20032;-63
2023/01/20 00:46:51;;;;;;;;;;;;;;;1.24;80.89;100521.97;4187233;28;20390;-62
2023/01/20 00:48:53;;;;;;;;;;;;;;;1.23;81.11;100521.13;4189029;28;20450;-63
2023/01/20 00:50:55;;;;;;;;;;;;;;;1.25;81.27;100523.66;4187482;28;20368;-62
2023/01/20 00:52:57;;;;;;;;;;;;;;;1.25;80.63;100523.66;4198218;28;20017;-62
2023/01/20 00:54:59;;;;;;;;;;;;;;;1.28;80.28;100522.56;4204051;28;20016;-62
2023/01/20 00:57:01;;;;;;;;;;;;;;;1.30;79.80;100524.16;4199620;28;20434;-63
2023/01/20 00:59:03;;;;;;;;;;;;;;;1.31;79.58;100515.19;4187659;28;20028;-62
2023/01/20 01:01:06;;;;;;;;;;;;;;;1.32;79.07;100524.88;4187294;28;20015;-63
2023/01/20 01:03:09;;;;;;;;;;;;;;;1.35;78.42;100529.06;4200279;28;19951;-63
2023/01/20 01:05:11;;;;;;;;;;;;;;;1.36;77.95;100531.63;4202673;28;20524;-62
2023/01/20 01:07:13;;;;;;;;;;;;;;;1.37;78.40;100530.66;4203248;28;20726;-62
2023/01/20 01:09:15;;;;;;;;;;;;;;;1.37;78.39;100535.97;4204628;28;20019;-63
2023/01/20 01:11:17;;;;;;;;;;;;;;;1.36;78.87;100542.25;4204426;28;20334;-63
2023/01/20 01:13:19;;;;;;;;;;;;;;;1.35;79.24;100540.59;4202845;28;20024;-63
2023/01/20 01:15:21;;;;;;;;;;;;;;;1.34;79.52;100546.88;4205558;28;20027;-62
2023/01/20 01:17:24;;;;;;;;;;;;;;;1.32;79.83;100546.16;4196326;28;20019;-62
2023/01/20 01:19:26;;;;;;;;;;;;;;;1.33;79.47;100545.16;4186328;28;20015;-63
2023/01/20 01:21:28;;;;;;;;;;;;;;;1.35;79.38;100550.38;4186130;28;20043;-63
2023/01/20 01:23:30;;;;;;;;;;;;;;;1.34;79.34;100548.69;4202824;28;20018;-63
2023/01/20 01:25:32;;;;;;;;;;;;;;;1.35;79.19;100547.69;4203722;28;20030;-63
2023/01/20 01:27:34;;;;;;;;;;;;;;;1.35;79.21;100555.69;4194711;28;20039;-62
2023/01/20 01:29:36;;;;;;;;;;;;;;;1.34;79.32;100560.19;4185344;28;20019;-62
2023/01/20 01:31:38;;;;;;;;;;;;;;;1.34;79.63;100560.19;4185724;28;20019;-62
2023/01/20 01:33:41;;;;;;;;;;;;;;;1.32;79.68;100561.28;4187234;28;20040;-62
2023/01/20 01:35:43;;;;;;;;;;;;;;;1.33;79.55;100558.47;4187309;28;20043;-63
2023/01/20 01:37:45;;;;;;;;;;;;;;;1.35;79.48;100566.34;4185992;28;19991;-62
2023/01/20 01:39:47;;;;;;;;;;;;;;;1.35;78.65;100564.53;4187418;28;20438;-61
2023/01/20 01:41:49;;;;;;;;;;;;;;;1.38;78.50;100561.63;4184767;28;20019;-63
2023/01/20 01:44:01;;;;;;;;;;;;;;;1.38;78.01;100561.63;4186477;28;20263;-62
2023/01/20 01:46:03;;;;;;;;;;;;;;;1.40;77.72;100564.16;4202630;28;20043;-62
2023/01/20 01:48:05;;;;;;;;;;;;;;;1.42;77.47;100562.22;4186740;28;20036;-63
2023/01/20 01:50:10;;;;;;;;;;;;;;;1.45;77.61;100567.31;4186184;28;20347;-63
2023/01/20 01:52:12;;;;;;;;;;;;;;;1.44;77.76;100574.44;4185722;28;20442;-62
2023/01/20 01:54:15;;;;;;;;;;;;;;;1.44;77.75;100581.56;4188215;28;20032;-62
2023/01/20 01:56:17;;;;;;;;;;;;;;;1.42;78.23;100572.88;4187186;28;20051;-62
2023/01/20 01:58:21;;;;;;;;;;;;;;;1.42;77.94;100578.19;4185560;28;20489;-61
2023/01/20 02:00:23;;;;;;;;;;;;;;;1.41;77.98;100593.31;4186375;28;20741;-61
2023/01/20 02:02:25;;;;;;;;;;;;;;;1.42;78.28;100588.84;4185729;28;20020;-62
2023/01/20 02:04:27;;;;;;;;;;;;;;;1.42;78.24;100594.16;4186315;28;19932;-62
2023/01/20 02:06:31;;;;;;;;;;;;;;;1.42;77.77;100596.81;4186507;28;20520;-63
2023/01/20 02:08:33;;;;;;;;;;;;;;;1.44;76.99;100597.53;4186621;28;20027;-63
2023/01/20 02:10:35;;;;;;;;;;;;;;;1.48;76.58;100603.50;4186297;28;20355;-62
2023/01/20 02:12:37;;;;;;;;;;;;;;;1.49;76.18;100591.84;4185765;28;20027;-62
2023/01/20 02:14:40;;;;;;;;;;;;;;;1.50;76.05;100602.38;4186831;28;20019;-62
2023/01/20 02:16:44;;;;;;;;;;;;;;;1.49;76.30;100595.38;4185952;28;20031;-63
2023/01/20 02:18:51;;;;;;;;;;;;;;;1.49;76.76;100599.84;4186379;28;20023;-62
2023/01/20 02:21:20;;;;;;;;;;;;;;;1.48;77.27;100604.31;4184482;28;20015;-63
2023/01/20 02:23:28;;;;;;;;;;;;;;;1.48;77.54;100614.13;4188610;28;19978;-63
2023/01/20 02:25:40;;;;;;;;;;;;;;;1.47;77.41;100618.59;4187136;28;20375;-61
2023/01/20 02:27:56;;;;;;;;;;;;;;;1.46;77.00;100619.56;4185978;28;20011;-61
2023/01/20 02:30:16;;;;;;;;;;;;;;;1.48;77.04;100627.44;4185202;28;20105;-63
2023/01/20 02:32:24;;;;;;;;;;;;;;;1.47;77.22;100631.91;4178665;28;20533;-62
2023/01/20 02:34:27;;;;;;;;;;;;;;;1.46;77.61;100634.69;4193216;28;20039;-62
2023/01/20 02:36:30;;;;;;;;;;;;;;;1.44;77.85;100637.47;4186539;28;20015;-62
2023/01/20 02:38:33;;;;;;;;;;;;;;;1.43;77.75;100641.13;4186096;28;20023;-63
2023/01/20 02:40:37;;;;;;;;;;;;;;;1.46;77.70;100650.66;4185088;28;20032;-63
2023/01/20 02:42:41;;;;;;;;;;;;;;;1.46;77.70;100648.84;4185137;28;20737;-62
2023/01/20 02:44:45;;;;;;;;;;;;;;;1.46;77.70;100648.84;4186017;28;20054;-61
2023/01/20 02:46:48;;;;;;;;;;;;;;;1.47;77.73;100655.00;4187476;28;20632;-60
2023/01/20 02:48:52;;;;;;;;;;;;;;;1.48;77.64;100652.22;4218547;28;20018;-63
2023/01/20 02:50:56;;;;;;;;;;;;;;;1.49;77.14;100655.72;4201680;28;20019;-63
2023/01/20 02:52:59;;;;;;;;;;;;;;;1.49;76.82;100653.94;4200494;28;20016;-64
2023/01/20 02:55:02;;;;;;;;;;;;;;;1.49;77.06;100648.63;4201412;28;20010;-64
2023/01/20 02:57:05;;;;;;;;;;;;;;;1.49;77.21;100653.06;4197481;28;20461;-62
2023/01/20 02:59:08;;;;;;;;;;;;;;;1.48;76.70;100652.22;4187042;28;20044;-62
2023/01/20 03:01:11;;;;;;;;;;;;;;;1.48;76.89;100654.91;4185516;28;20024;-63
2023/01/20 03:03:15;;;;;;;;;;;;;;;1.48;77.21;100657.56;4185157;28;19986;-63
2023/01/20 03:05:20;;;;;;;;;;;;;;;1.47;77.26;100663.00;4188218;28;20024;-63
2023/01/20 03:07:22;;;;;;;;;;;;;;;1.45;77.59;100663.13;4194223;28;19924;-63
2023/01/20 03:09:26;;;;;;;;;;;;;;;1.44;77.64;100672.94;4205732;28;20019;-62
2023/01/20 03:11:28;;;;;;;;;;;;;;;1.43;77.76;100668.56;4203981;28;20365;-63
2023/01/20 03:13:31;;;;;;;;;;;;;;;1.41;77.90;100666.97;4204453;28;20015;-61
2023/01/20 03:15:37;;;;;;;;;;;;;;;1.40;78.01;100665.31;4205483;28;20042;-61
2023/01/20 03:17:39;;;;;;;;;;;;;;;1.39;77.89;100672.41;4204087;28;20023;-63
2023/01/20 03:19:41;;;;;;;;;;;;;;;1.39;77.65;100666.25;4204832;28;20489;-63
2023/01/20 03:21:44;;;;;;;;;;;;;;;1.37;78.08;100679.69;4203790;28;20019;-61
2023/01/20 03:23:47;;;;;;;;;;;;;;;1.37;78.19;100671.69;4205908;28;20008;-61
2023/01/20 03:25:49;;;;;;;;;;;;;;;1.37;78.33;100676.19;4205014;28;20023;-62
2023/01/20 03:27:51;;;;;;;;;;;;;;;1.38;78.49;100683.19;4204472;28;19925;-63
2023/01/20 03:29:53;;;;;;;;;;;;;;;1.37;78.69;100681.50;4206203;28;20010;-62
2023/01/20 03:31:55;;;;;;;;;;;;;;;1.37;78.77;100678.84;4204172;28;20398;-59
2023/01/20 03:33:58;;;;;;;;;;;;;;;1.37;78.67;100681.50;4204968;28;20030;-60
2023/01/20 03:36:00;;;;;;;;;;;;;;;1.38;78.68;100688.50;4206010;28;20039;-62
2023/01/20 03:38:04;;;;;;;;;;;;;;;1.40;78.53;100692.75;4205335;28;20014;-64
2023/01/20 03:40:07;;;;;;;;;;;;;;;1.42;77.78;100692.63;4204781;28;20019;-62
2023/01/20 03:42:09;;;;;;;;;;;;;;;1.42;78.02;100693.47;4203854;28;20014;-63
2023/01/20 03:44:12;;;;;;;;;;;;;;;1.44;77.61;100701.34;4205072;28;20023;-63
2023/01/20 03:46:16;;;;;;;;;;;;;;;1.42;77.95;100697.97;4205593;28;20028;-63
2023/01/20 03:48:18;;;;;;;;;;;;;;;1.41;77.97;100702.44;4205204;28;20275;-64
2023/01/20 03:50:25;;;;;;;;;;;;;;;1.41;77.97;100701.56;4204831;28;20015;-63
2023/01/20 03:52:28;;;;;;;;;;;;;;;1.42;77.87;100705.94;4204611;28;20024;-62
2023/01/20 03:54:33;;;;;;;;;;;;;;;1.43;77.57;100705.00;4204966;28;20032;-63
2023/01/20 03:56:36;;;;;;;;;;;;;;;1.44;77.56;100709.31;4204139;28;19982;-61
2023/01/20 03:58:39;;;;;;;;;;;;;;;1.44;77.79;100709.31;4204796;28;20007;-62
2023/01/20 04:00:42;;;;;;;;;;;;;;;1.44;77.83;100707.53;4204371;28;20008;-61
2023/01/20 04:02:44;;;;;;;;;;;;;;;1.44;77.81;100709.31;4203439;28;20030;-61
2023/01/20 04:04:46;;;;;;;;;;;;;;;1.46;77.73;100714.53;4204605;28;20365;-63
2023/01/20 04:06:49;;;;;;;;;;;;;;;1.43;78.09;100712.97;4201511;28;20015;-62
2023/01/20 04:08:51;;;;;;;;;;;;;;;1.40;78.04;100716.72;4188966;28;20465;-62
2023/01/20 04:10:54;;;;;;;;;;;;;;;1.40;78.07;100719.38;4188659;28;20047;-62
2023/01/20 04:12:56;;;;;;;;;;;;;;;1.39;78.09;100722.97;4187054;28;20020;-61
2023/01/20 04:14:58;;;;;;;;;;;;;;;1.39;78.39;100722.97;4187576;28;20027;-63
2023/01/20 04:17:00;;;;;;;;;;;;;;;1.37;78.65;100729.41;4189243;28;20217;-63
2023/01/20 04:19:02;;;;;;;;;;;;;;;1.36;78.65;100733.03;4188062;28;20365;-63
2023/01/20 04:21:04;;;;;;;;;;;;;;;1.34;78.92;100732.31;4188101;28;20020;-63
2023/01/20 04:23:06;;;;;;;;;;;;;;;1.33;78.86;100731.44;4187277;28;20015;-63
2023/01/20 04:25:10;;;;;;;;;;;;;;;1.32;78.43;100728.91;4188232;28;20011;-62
2023/01/20 04:27:15;;;;;;;;;;;;;;;1.32;78.79;100729.75;4188346;28;20003;-63
2023/01/20 04:29:17;;;;;;;;;;;;;;;1.34;78.84;100737.63;4188742;28;19967;-63
2023/01/20 04:31:19;;;;;;;;;;;;;;;1.32;78.72;100735.09;4187521;28;20051;-64
2023/01/20 04:33:20;;;;;;;;;;;;;;;1.35;79.05;100734.84;4187274;28;20024;-62
2023/01/20 04:35:22;;;;;;;;;;;;;;;1.35;78.76;100737.50;4188324;28;20019;-63
2023/01/20 04:37:25;;;;;;;;;;;;;;;1.37;78.83;100737.41;4187697;28;20024;-62
2023/01/20 04:39:27;;;;;;;;;;;;;;;1.37;78.40;100743.56;4189183;28;20461;-61
2023/01/20 04:41:29;;;;;;;;;;;;;;;1.39;78.27;100741.63;4186925;28;20035;-63
2023/01/20 04:43:32;;;;;;;;;;;;;;;1.41;78.15;100744.16;4187517;28;20015;-62
2023/01/20 04:45:34;;;;;;;;;;;;;;;1.42;78.19;100749.38;4187936;28;20032;-62
2023/01/20 04:47:36;;;;;;;;;;;;;;;1.42;78.29;100754.69;4187636;28;19978;-62
2023/01/20 04:49:38;;;;;;;;;;;;;;;1.43;78.02;100750.22;4188036;28;20363;-63
2023/01/20 04:51:40;;;;;;;;;;;;;;;1.39;78.34;100746.09;4186605;28;20442;-63
2023/01/20 04:53:42;;;;;;;;;;;;;;;1.38;78.52;100750.59;4188543;28;20004;-62
2023/01/20 04:55:44;;;;;;;;;;;;;;;1.38;78.60;100755.03;4189103;28;20047;-62
2023/01/20 04:57:47;;;;;;;;;;;;;;;1.35;78.89;100757.94;4186727;28;20205;-62
2023/01/20 04:59:50;;;;;;;;;;;;;;;1.32;79.04;100759.03;4188367;28;20007;-62
2023/01/20 05:01:52;;;;;;;;;;;;;;;1.29;79.32;100764.59;4186286;28;20024;-62
2023/01/20 05:03:54;;;;;;;;;;;;;;;1.31;79.18;100767.13;4189407;28;20048;-62
2023/01/20 05:05:56;;;;;;;;;;;;;;;1.32;78.89;100764.34;4188134;28;20478;-61
2023/01/20 05:07:58;;;;;;;;;;;;;;;1.34;78.75;100767.75;4187493;28;20019;-62
2023/01/20 05:10:00;;;;;;;;;;;;;;;1.34;78.86;100769.56;4186068;28;20019;-63
2023/01/20 05:12:02;;;;;;;;;;;;;;;1.32;79.01;100772.34;4186327;28;20023;-62
2023/01/20 05:14:04;;;;;;;;;;;;;;;1.31;79.20;100777.78;4188038;28;20401;-62
2023/01/20 05:16:08;;;;;;;;;;;;;;;1.32;79.04;100779.47;4187726;28;20450;-63
2023/01/20 05:18:10;;;;;;;;;;;;;;;1.31;79.15;100789.25;4187827;28;20365;-61
2023/01/20 05:20:13;;;;;;;;;;;;;;;1.32;79.31;100790.97;4186929;28;20016;-62
2023/01/20 05:22:14;;;;;;;;;;;;;;;1.31;79.15;100796.41;4187040;28;20446;-62
2023/01/20 05:24:16;;;;;;;;;;;;;;;1.31;79.22;100799.06;4186761;28;20027;-62
2023/01/20 05:26:19;;;;;;;;;;;;;;;1.31;79.11;100799.91;4187162;28;20011;-62
2023/01/20 05:28:23;;;;;;;;;;;;;;;1.32;78.99;100806.09;4186066;28;19995;-62
2023/01/20 05:30:25;;;;;;;;;;;;;;;1.33;78.92;100811.25;4187174;28;21349;-62
2023/01/20 05:32:29;;;;;;;;;;;;;;;1.29;79.25;100812.47;4185926;28;20022;-62
2023/01/20 05:34:31;;;;;;;;;;;;;;;1.30;79.00;100818.66;4187255;28;20020;-63
2023/01/20 05:36:32;;;;;;;;;;;;;;;1.30;79.23;100823.97;4186475;28;20007;-62
2023/01/20 05:38:34;;;;;;;;;;;;;;;1.31;79.45;100825.66;4185146;28;20047;-60
2023/01/20 05:40:36;;;;;;;;;;;;;;;1.31;79.43;100823.84;4186904;28;20019;-62
2023/01/20 05:42:38;;;;;;;;;;;;;;;1.30;79.40;100832.81;4186354;28;20454;-61
2023/01/20 05:44:40;;;;;;;;;;;;;;;1.30;79.67;100831.94;4186988;28;20007;-61
2023/01/20 05:46:42;;;;;;;;;;;;;;;1.29;79.75;100832.94;4186154;28;20012;-63
2023/01/20 05:48:46;;;;;;;;;;;;;;;1.28;79.75;100831.22;4187708;28;20023;-61
2023/01/20 05:50:48;;;;;;;;;;;;;;;1.26;80.02;100839.31;4187148;28;20497;-61
2023/01/20 05:52:49;;;;;;;;;;;;;;;1.24;80.00;100833.28;4186581;28;20015;-62
2023/01/20 05:54:51;;;;;;;;;;;;;;;1.23;80.15;100840.38;4187294;28;20044;-62
2023/01/20 05:56:53;;;;;;;;;;;;;;;1.20;80.00;100842.44;4186331;28;20023;-61
2023/01/20 05:58:56;;;;;;;;;;;;;;;1.19;80.35;100844.25;4186984;28;20019;-60
2023/01/20 06:01:03;;;;;;;;;;;;;;;1.21;80.31;100844.16;4186670;28;20028;-63
2023/01/20 06:03:05;;;;;;;;;;;;;;;1.19;80.10;100846.03;4185984;28;20019;-63
2023/01/20 06:05:09;;;;;;;;;;;;;;;1.17;80.27;100856.81;4187599;28;20380;-61
2023/01/20 06:07:11;;;;;;;;;;;;;;;1.20;80.29;100861.06;4186513;28;20036;-63
2023/01/20 06:09:13;;;;;;;;;;;;;;;1.22;80.13;100864.44;4183339;28;20494;-62
2023/01/20 06:11:16;;;;;;;;;;;;;;;1.22;80.00;100865.31;4183804;28;19928;-62
2023/01/20 06:13:18;;;;;;;;;;;;;;;1.20;80.18;100869.88;4187338;28;20012;-62
2023/01/20 06:15:22;;;;;;;;;;;;;;;1.20;79.91;100877.03;4186178;28;20024;-61
2023/01/20 06:17:24;;;;;;;;;;;;;;;1.19;79.91;100876.19;4186515;28;20549;-62
2023/01/20 06:19:26;;;;;;;;;;;;;;;1.19;80.18;100875.31;4186002;28;20007;-63
2023/01/20 06:21:29;;;;;;;;;;;;;;;1.19;79.85;100891.28;4184784;28;20019;-62
2023/01/20 06:23:31;;;;;;;;;;;;;;;1.17;80.25;100890.56;4184375;28;20031;-62
2023/01/20 06:25:33;;;;;;;;;;;;;;;1.16;80.12;100897.69;4186829;28;20036;-63
2023/01/20 06:27:36;;;;;;;;;;;;;;;1.15;79.88;100903.13;4186087;28;20785;-63
2023/01/20 06:29:38;;;;;;;;;;;;;;;1.16;80.17;100908.34;4187159;28;20012;-61
2023/01/20 06:31:39;;;;;;;;;;;;;;;1.14;80.11;100901.41;4184242;28;20043;-61
2023/01/20 06:33:42;;;;;;;;;;;;;;;1.14;80.10;100912.91;4186439;28;20350;-62
2023/01/20 06:35:43;;;;;;;;;;;;;;;1.14;80.21;100909.41;4185739;28;20016;-62
2023/01/20 06:37:47;;;;;;;;;;;;;;;1.13;80.05;100913.88;4186210;28;20461;-61
2023/01/20 06:39:49;;;;;;;;;;;;;;;1.10;80.30;100919.41;4185193;28;20039;-62
2023/01/20 06:41:51;;;;;;;;;;;;;;;1.08;80.39;100919.53;4184327;28;20030;-61
2023/01/20 06:43:53;;;;;;;;;;;;;;;1.07;80.23;100930.28;4187129;28;20372;-61
2023/01/20 06:45:58;;;;;;;;;;;;;;;1.07;80.36;100931.13;4187239;28;20051;-60
2023/01/20 06:48:00;;;;;;;;;;;;;;;1.10;80.22;100938.03;4186370;28;19964;-63
2023/01/20 06:50:02;;;;;;;;;;;;;;;1.09;80.27;100936.34;4188018;28;20473;-62
2023/01/20 06:52:04;;;;;;;;;;;;;;;1.06;80.19;100940.06;4186673;28;20755;-62
2023/01/20 06:54:07;;;;;;;;;;;;;;;1.04;80.50;100933.16;4187271;28;20024;-62
2023/01/20 06:56:09;;;;;;;;;;;;;;;1.03;80.50;100947.41;4188028;28;20016;-60
2023/01/20 06:58:11;;;;;;;;;;;;;;;0.99;80.55;100938.81;4186117;28;20019;-62
2023/01/20 07:00:14;;;;;;;;;;;;;;;0.97;80.79;100951.38;4187527;28;20466;-62
2023/01/20 07:02:16;;;;;;;;;;;;;;;0.97;81.03;100958.47;4185663;28;20066;-61
2023/01/20 07:04:18;;;;;;;;;;;;;;;0.97;81.07;100958.47;4184837;28;20031;-61
2023/01/20 07:06:20;;;;;;;;;;;;;;;0.92;81.22;100958.81;4185236;28;20026;-60
2023/01/20 07:08:22;;;;;;;;;;;;;;;0.90;81.17;100964.25;4185008;28;20039;-61
2023/01/20 07:10:25;;;;;;;;;;;;;;;0.90;81.15;100974.03;4185786;28;20343;-62
2023/01/20 07:12:27;;;;;;;;;;;;;;;0.91;81.11;100981.06;4183586;28;19942;-62
2023/01/20 07:14:29;;;;;;;;;;;;;;;0.93;81.15;100978.31;4186421;28;20011;-62
2023/01/20 07:16:31;;;;;;;;;;;;;;;0.91;81.27;100986.38;4182937;28;20012;-62
2023/01/20 07:18:33;;;;;;;;;;;;;;;0.90;81.34;100990.84;4184486;28;20015;-62
2023/01/20 07:20:37;;;;;;;;;;;;;;;0.90;81.13;100990.00;4184645;28;20027;-62
2023/01/20 07:22:39;;;;;;;;;;;;;;;0.92;81.02;100990.72;4184090;28;20032;-61
2023/01/20 07:24:41;;;;;;;;;;;;;;;0.94;81.00;101001.25;4186070;28;20339;-61
2023/01/20 07:26:44;;;;;;;;;;;;;;;0.96;80.78;101007.34;4185043;28;20011;-63
2023/01/20 07:28:47;;;;;;;;;;;;;;;0.93;80.42;101002.22;4184307;28;20027;-63
2023/01/20 07:30:49;;;;;;;;;;;;;;;0.84;80.41;101001.91;4185488;28;20019;-63
2023/01/20 07:32:51;;;;;;;;;;;;;;;0.80;80.57;101004.88;4185090;28;19932;-63
2023/01/20 07:34:53;;;;;;;;;;;;;;;0.75;80.83;101010.53;4185948;28;20047;-63
2023/01/20 07:36:55;;;;;;;;;;;;;;;0.74;81.20;101011.50;4184912;28;20035;-64
2023/01/20 07:38:57;;;;;;;;;;;;;;;0.78;81.32;101015.63;4186187;28;20019;-64
2023/01/20 07:40:59;;;;;;;;;;;;;;;0.78;81.56;101015.63;4185457;28;20469;-64
2023/01/20 07:43:04;;;;;;;;;;;;;;;0.78;81.38;101012.97;4186067;28;20031;-63
2023/01/20 07:45:06;;;;;;;;;;;;;;;0.80;81.48;101012.84;4185288;28;20354;-64
2023/01/20 07:47:08;;;;;;;;;;;;;;;0.83;81.40;101015.31;4185457;28;20008;-64
2023/01/20 07:49:10;;;;;;;;;;;;;;;0.84;81.30;101020.50;4185637;28;20450;-62
2023/01/20 07:51:13;;;;;;;;;;;;;;;0.84;81.05;101020.50;4188061;28;20016;-63
2023/01/20 07:53:15;;;;;;;;;;;;;;;0.86;80.94;101013.31;4188781;28;19935;-64
2023/01/20 07:55:17;;;;;;;;;;;;;;;0.89;80.65;101021.06;4189160;28;20015;-64
2023/01/20 07:57:19;;;;;;;;;;;;;;;0.89;80.46;101017.53;4186151;28;19978;-64
2023/01/20 07:59:23;;;;;;;;;;;;;;;0.86;80.40;101020.41;4189023;28;20377;-63
2023/01/20 08:01:25;;;;;;;;;;;;;;;0.84;80.33;101030.31;4187379;28;20027;-64
2023/01/20 08:03:27;;;;;;;;;;;;;;;0.83;80.40;101029.47;4186579;28;20035;-64
2023/01/20 08:05:29;;;;;;;;;;;;;;;0.82;80.39;101034.91;4188041;28;20019;-64
2023/01/20 08:07:31;;;;;;;;;;;;;;;0.84;80.76;101041.78;4186458;28;20011;-64
2023/01/20 08:09:33;;;;;;;;;;;;;;;0.84;80.61;101040.94;4188478;28;20019;-64
2023/01/20 08:11:35;;;;;;;;;;;;;;;0.83;80.46;101045.44;4188169;28;20008;-64
2023/01/20 08:13:38;;;;;;;;;;;;;;;0.82;80.50;101049.03;4188918;28;19928;-64
2023/01/20 08:15:41;;;;;;;;;;;;;;;0.81;80.70;101046.47;4190971;28;20019;-64
2023/01/20 08:17:43;;;;;;;;;;;;;;;0.82;80.47;101041.06;4186863;28;20015;-64
2023/01/20 08:19:45;;;;;;;;;;;;;;;0.84;80.59;101052.44;4188852;28;20020;-62
2023/01/20 08:21:47;;;;;;;;;;;;;;;0.87;80.15;101054.03;4187207;28;20015;-63
2023/01/20 08:23:49;;;;;;;;;;;;;;;0.85;80.05;101055.97;4188857;28;20027;-63
2023/01/20 08:25:57;;;;;;;;;;;;;;;0.84;80.02;101060.41;4187914;28;20048;-64
2023/01/20 08:27:59;;;;;;;;;;;;;;;0.82;80.15;101064.16;4188115;28;20023;-64
2023/01/20 08:30:01;;;;;;;;;;;;;;;0.84;80.36;101065.72;4189148;28;20385;-63
2023/01/20 08:32:04;;;;;;;;;;;;;;;0.84;80.50;101060.41;4202068;28;20032;-62
2023/01/20 08:34:06;;;;;;;;;;;;;;;0.85;80.28;101069.25;4203905;28;20313;-63
2023/01/20 08:36:09;;;;;;;;;;;;;;;0.81;80.46;101057.13;4187480;28;20028;-64
2023/01/20 08:38:11;;;;;;;;;;;;;;;0.79;80.82;101061.69;4187786;28;20011;-64
2023/01/20 08:40:13;;;;;;;;;;;;;;;0.80;80.97;101066.03;4187763;28;20015;-63
2023/01/20 08:42:15;;;;;;;;;;;;;;;0.77;80.94;101082.19;4186845;28;20047;-63
2023/01/20 08:44:19;;;;;;;;;;;;;;;0.75;81.05;101086.78;4188279;28;20537;-64
2023/01/20 08:46:21;;;;;;;;;;;;;;;0.73;81.32;101089.53;4187804;28;20016;-63
2023/01/20 08:48:24;;;;;;;;;;;;;;;0.73;81.31;101094.03;4188614;28;20142;-63
2023/01/20 08:50:26;;;;;;;;;;;;;;;0.70;81.59;101087.09;4189445;28;20019;-64
2023/01/20 08:52:28;;;;;;;;;;;;;;;0.69;81.65;101085.38;4187934;28;20019;-64
2023/01/20 08:54:33;;;;;;;;;;;;;;;0.66;81.63;101090.94;4188175;28;19925;-64
2023/01/20 08:56:35;;;;;;;;;;;;;;;0.68;81.76;101094.34;4187444;28;20015;-63
2023/01/20 08:58:37;;;;;;;;;;;;;;;0.69;81.73;101096.88;4188338;28;20380;-64
2023/01/20 09:00:39;;;;;;;;;;;;;;;0.71;81.80;101102.94;4188878;28;20019;-64
2023/01/20 09:02:41;;;;;;;;;;;;;;;0.74;81.79;101103.69;4187314;28;20011;-63
2023/01/20 09:04:45;;;;;;;;;;;;;;;0.75;81.82;101105.41;4189223;28;20842;-64
2023/01/20 09:06:48;;;;;;;;;;;;;;;0.73;81.89;101113.47;4187027;28;20015;-64
2023/01/20 09:08:51;;;;;;;;;;;;;;;0.77;81.89;101116.75;4188560;28;20015;-63
2023/01/20 09:10:56;;;;;;;;;;;;;;;0.81;81.70;101121.78;4187853;28;20014;-64
2023/01/20 09:12:58;;;;;;;;;;;;;;;0.82;81.78;101118.16;4186996;28;20131;-63
2023/01/20 09:15:00;;;;;;;;;;;;;;;0.82;81.42;101127.97;4188581;28;19928;-64
2023/01/20 09:17:02;;;;;;;;;;;;;;;0.78;81.15;101134.44;4187266;28;20027;-64
2023/01/20 09:19:04;;;;;;;;;;;;;;;0.74;81.29;101133.81;4189468;28;20003;-64
2023/01/20 09:21:07;;;;;;;;;;;;;;;0.73;81.44;101137.41;4189662;28;20043;-64
2023/01/20 09:23:09;;;;;;;;;;;;;;;0.73;81.50;101145.38;4188645;28;20462;-64
2023/01/20 09:25:11;;;;;;;;;;;;;;;0.79;81.51;101144.97;4189634;28;20017;-64
2023/01/20 09:27:13;;;;;;;;;;;;;;;0.81;81.45;101143.03;4187381;28;20015;-64
2023/01/20 09:29:16;;;;;;;;;;;;;;;0.81;81.33;101147.53;4187814;28;20055;-63
2023/01/20 09:31:18;;;;;;;;;;;;;;;0.81;81.12;101153.69;4187871;28;20019;-63
2023/01/20 09:33:20;;;;;;;;;;;;;;;0.79;81.05;101152.94;4189310;28;20032;-63
2023/01/20 09:35:22;;;;;;;;;;;;;;;0.81;80.90;101158.16;4189604;28;20454;-62
2023/01/20 09:44:38;;;;;;;;;;;;;;;0.85;81.11;101167.66;4138625;28;20419;-63
2023/01/20 09:46:44;;;;;;;;;;;;;;;0.88;81.28;101162.13;4185587;28;20011;-63
2023/01/20 09:53:44;;;;;;;;;;;;;;;0.92;81.27;101166.25;4186559;28;19932;-63
2023/01/20 09:55:47;;;;;;;;;;;;;;;0.92;81.08;101170.72;4185087;28;19971;-63
2023/01/20 09:57:50;;;;;;;;;;;;;;;0.89;80.88;101172.66;4185975;28;20019;-63
2023/01/20 09:59:55;;;;;;;;;;;;;;;0.86;81.13;101172.88;4186368;28;19924;-63
2023/01/20 10:01:57;;;;;;;;;;;;;;;0.85;81.31;101171.16;4187292;28;20015;-64
2023/01/20 10:03:59;;;;;;;;;;;;;;;0.86;81.29;101177.31;4188095;28;20019;-64
2023/01/20 10:06:01;;;;;;;;;;;;;;;0.86;81.27;101177.31;4187970;28;20012;-63
2023/01/20 10:08:04;;;;;;;;;;;;;;;0.87;81.22;101184.34;4184878;28;20036;-64
2023/01/20 10:10:09;;;;;;;;;;;;;;;0.89;81.30;101183.28;4187094;28;20023;-64
2023/01/20 10:12:13;;;;;;;;;;;;;;;0.94;80.93;101180.31;4186612;28;20024;-63
2023/01/20 10:14:15;;;;;;;;;;;;;;;0.97;80.69;101185.44;4186806;28;20031;-64
2023/01/20 10:16:23;;;;;;;;;;;;;;;0.99;80.54;101186.19;4187332;28;20425;-63
2023/01/20 10:18:27;;;;;;;;;;;;;;;1.01;80.10;101191.41;4186649;28;20028;-64
2023/01/20 10:20:31;;;;;;;;;;;;;;;1.03;80.01;101190.31;4185773;28;20023;-63
2023/01/20 10:22:34;;;;;;;;;;;;;;;1.02;79.90;101185.97;4186220;28;20024;-64
2023/01/20 10:24:37;;;;;;;;;;;;;;;1.02;79.79;101193.06;4187135;28;20011;-62
2023/01/20 10:26:42;;;;;;;;;;;;;;;1.00;79.87;101189.69;4187641;28;20028;-64
2023/01/20 10:28:44;;;;;;;;;;;;;;;1.03;80.02;101192.13;4188517;28;20015;-63
2023/01/20 10:30:46;;;;;;;;;;;;;;;1.03;80.07;101197.44;4186550;28;20022;-64
2023/01/20 10:32:49;;;;;;;;;;;;;;;1.03;80.53;101197.44;4186147;28;20024;-64
2023/01/20 10:34:51;;;;;;;;;;;;;;;1.05;80.20;101191.09;4187145;28;20036;-63
2023/01/20 10:36:55;;;;;;;;;;;;;;;1.07;80.53;101193.63;4185729;28;20015;-64
2023/01/20 10:38:59;;;;;;;;;;;;;;;1.06;80.45;101192.75;4187067;28;20381;-64
2023/01/20 10:41:03;;;;;;;;;;;;;;;1.06;80.39;101194.59;4186566;28;20019;-62
2023/01/20 10:43:09;;;;;;;;;;;;;;;1.11;79.99;101199.59;4186078;28;20008;-63
2023/01/20 10:45:19;;;;;;;;;;;;;;;1.11;79.98;101202.25;4186637;28;20022;-63
2023/01/20 10:47:24;;;;;;;;;;;;;;;1.14;79.58;101204.72;4186458;28;20102;-62
2023/01/20 10:49:36;;;;;;;;;;;;;;;1.15;79.33;101204.59;4187144;28;20020;-64
2023/01/20 10:51:39;;;;;;;;;;;;;;;1.15;78.93;101204.59;4185798;28;20016;-64
2023/01/20 10:53:43;;;;;;;;;;;;;;;1.16;78.87;101202.78;4187425;28;20031;-62